sensor_id;sensor_type;location;lat;lon;timestamp;temperature;humidity
3275;DHT22;1649;53.672;10.064;2022-09-20T00:00:44;9.30;99.90
3275;DHT22;1649;53.672;10.064;2022-09-20T00:03:12;9.30;99.90
3275;DHT22;1649;53.672;10.064;2022-09-20T00:05:40;9.30;99.90
3275;DHT22;1649;53.672;10.064;2022-09-20T00:08:09;9.20;99.90
3275;DHT22;1649;53.672;10.064;2022-09-20T00:10:36;9.20;99.90
3275;DHT22;1649;53.672;10.064;2022-09-20T00:13:05;9.20;99.90
3275;DHT22;1649;53.672;10.064;2022-09-20T00:15:31;9.20;99.90
3275;DHT22;1649;53.672;10.064;2022-09-20T00:17:56;9.20;99.90
3275;DHT22;1649;53.672;10.064;2022-09-20T00:20:22;9.20;99.90
3275;DHT22;1649;53.672;10.064;2022-09-20T00:22:48;9.10;99.90
3275;DHT22;1649;53.672;10.064;2022-09-20T00:25:18;9.10;99.90
3275;DHT22;1649;53.672;10.064;2022-09-20T00:27:44;9.10;99.90
3275;DHT22;1649;53.672;10.064;2022-09-20T00:30:11;9.10;99.90
3275;DHT22;1649;53.672;10.064;2022-09-20T00:32:37;9.10;99.90
3275;DHT22;1649;53.672;10.064;2022-09-20T00:35:03;9.10;99.90
3275;DHT22;1649;53.672;10.064;2022-09-20T00:37:40;9.10;99.90
3275;DHT22;1649;53.672;10.064;2022-09-20T00:40:09;9.00;99.90
3275;DHT22;1649;53.672;10.064;2022-09-20T00:42:35;9.10;99.90
3275;DHT22;1649;53.672;10.064;2022-09-20T00:47:49;9.10;99.90
3275;DHT22;1649;53.672;10.064;2022-09-20T00:55:46;9.00;99.90
3275;DHT22;1649;53.672;10.064;2022-09-20T00:58:14;9.00;99.90
3275;DHT22;1649;53.672;10.064;2022-09-20T01:00:41;9.10;99.90
3275;DHT22;1649;53.672;10.064;2022-09-20T01:03:08;9.10;99.90
3275;DHT22;1649;53.672;10.064;2022-09-20T01:05:36;9.00;99.90
3275;DHT22;1649;53.672;10.064;2022-09-20T01:08:03;9.00;99.90
3275;DHT22;1649;53.672;10.064;2022-09-20T01:10:30;8.90;99.90
3275;DHT22;1649;53.672;10.064;2022-09-20T01:12:55;8.90;99.90
3275;DHT22;1649;53.672;10.064;2022-09-20T01:15:22;9.00;99.90
3275;DHT22;1649;53.672;10.064;2022-09-20T01:17:51;9.00;99.90
3275;DHT22;1649;53.672;10.064;2022-09-20T01:26:21;9.00;99.90
3275;DHT22;1649;53.672;10.064;2022-09-20T01:28:49;9.00;99.90
3275;DHT22;1649;53.672;10.064;2022-09-20T01:31:25;8.90;99.90
3275;DHT22;1649;53.672;10.064;2022-09-20T01:36:28;8.90;99.90
3275;DHT22;1649;53.672;10.064;2022-09-20T01:39:33;8.90;99.90
3275;DHT22;1649;53.672;10.064;2022-09-20T01:42:03;9.00;99.90
3275;DHT22;1649;53.672;10.064;2022-09-20T01:49:41;8.90;99.90
3275;DHT22;1649;53.672;10.064;2022-09-20T01:55:28;8.90;99.90
3275;DHT22;1649;53.672;10.064;2022-09-20T02:03:37;8.70;99.90
3275;DHT22;1649;53.672;10.064;2022-09-20T02:06:32;8.70;99.90
3275;DHT22;1649;53.672;10.064;2022-09-20T02:09:19;8.70;99.90
3275;DHT22;1649;53.672;10.064;2022-09-20T02:14:43;8.70;99.90
3275;DHT22;1649;53.672;10.064;2022-09-20T02:17:13;8.60;99.90
3275;DHT22;1649;53.672;10.064;2022-09-20T02:20:22;8.70;99.90
3275;DHT22;1649;53.672;10.064;2022-09-20T02:25:50;8.60;99.90
3275;DHT22;1649;53.672;10.064;2022-09-20T02:42:48;8.40;99.90
3275;DHT22;1649;53.672;10.064;2022-09-20T02:45:51;8.40;99.90
3275;DHT22;1649;53.672;10.064;2022-09-20T02:48:23;8.40;99.90
3275;DHT22;1649;53.672;10.064;2022-09-20T02:51:07;8.40;99.90
3275;DHT22;1649;53.672;10.064;2022-09-20T02:59:27;8.30;99.90
3275;DHT22;1649;53.672;10.064;2022-09-20T03:27:42;8.20;99.90
3275;DHT22;1649;53.672;10.064;2022-09-20T03:36:08;8.20;99.90
3275;DHT22;1649;53.672;10.064;2022-09-20T03:41:58;8.20;99.90
3275;DHT22;1649;53.672;10.064;2022-09-20T03:44:34;8.10;99.90
3275;DHT22;1649;53.672;10.064;2022-09-20T03:52:57;8.00;99.90
3275;DHT22;1649;53.672;10.064;2022-09-20T03:58:04;7.90;99.90
3275;DHT22;1649;53.672;10.064;2022-09-20T04:00:58;8.00;99.90
3275;DHT22;1649;53.672;10.064;2022-09-20T04:03:44;7.90;99.90
3275;DHT22;1649;53.672;10.064;2022-09-20T04:14:16;7.80;99.90
3275;DHT22;1649;53.672;10.064;2022-09-20T04:16:58;7.80;99.90
3275;DHT22;1649;53.672;10.064;2022-09-20T04:21:58;7.70;99.90
3275;DHT22;1649;53.672;10.064;2022-09-20T04:24:28;7.70;99.90
3275;DHT22;1649;53.672;10.064;2022-09-20T04:29:58;7.70;99.90
3275;DHT22;1649;53.672;10.064;2022-09-20T04:32:39;7.70;99.90
3275;DHT22;1649;53.672;10.064;2022-09-20T04:38:31;7.50;99.90
3275;DHT22;1649;53.672;10.064;2022-09-20T04:47:05;7.60;99.90
3275;DHT22;1649;53.672;10.064;2022-09-20T04:58:11;7.50;99.90
3275;DHT22;1649;53.672;10.064;2022-09-20T05:01:06;7.50;99.90
3275;DHT22;1649;53.672;10.064;2022-09-20T05:07:21;7.30;99.90
3275;DHT22;1649;53.672;10.064;2022-09-20T05:18:55;7.40;99.90
3275;DHT22;1649;53.672;10.064;2022-09-20T05:24:43;7.30;99.90
3275;DHT22;1649;53.672;10.064;2022-09-20T05:32:44;7.30;99.90
3275;DHT22;1649;53.672;10.064;2022-09-20T05:35:21;7.10;99.90
3275;DHT22;1649;53.672;10.064;2022-09-20T05:40:42;7.20;99.90
3275;DHT22;1649;53.672;10.064;2022-09-20T05:43:19;7.10;99.90
3275;DHT22;1649;53.672;10.064;2022-09-20T05:46:09;7.20;99.90
3275;DHT22;1649;53.672;10.064;2022-09-20T05:49:01;7.30;99.90
3275;DHT22;1649;53.672;10.064;2022-09-20T05:54:34;7.40;99.90
3275;DHT22;1649;53.672;10.064;2022-09-20T05:57:30;7.40;99.90
3275;DHT22;1649;53.672;10.064;2022-09-20T06:00:09;7.50;99.90
3275;DHT22;1649;53.672;10.064;2022-09-20T06:05:54;7.60;99.90
3275;DHT22;1649;53.672;10.064;2022-09-20T06:16:09;9.80;99.90
3275;DHT22;1649;53.672;10.064;2022-09-20T06:19:03;10.50;99.90
3275;DHT22;1649;53.672;10.064;2022-09-20T06:21:38;11.40;99.90
3275;DHT22;1649;53.672;10.064;2022-09-20T06:24:20;12.00;99.90
3275;DHT22;1649;53.672;10.064;2022-09-20T06:26:49;12.40;99.90
3275;DHT22;1649;53.672;10.064;2022-09-20T06:29:28;12.60;99.90
3275;DHT22;1649;53.672;10.064;2022-09-20T06:31:54;12.30;99.90
3275;DHT22;1649;53.672;10.064;2022-09-20T06:34:20;11.90;99.90
3275;DHT22;1649;53.672;10.064;2022-09-20T06:36:50;11.60;99.90
3275;DHT22;1649;53.672;10.064;2022-09-20T06:39:43;11.30;99.90
3275;DHT22;1649;53.672;10.064;2022-09-20T06:42:31;11.10;99.90
3275;DHT22;1649;53.672;10.064;2022-09-20T06:44:57;10.80;99.90
3275;DHT22;1649;53.672;10.064;2022-09-20T06:47:23;10.70;99.90
3275;DHT22;1649;53.672;10.064;2022-09-20T06:49:50;10.60;99.90
3275;DHT22;1649;53.672;10.064;2022-09-20T06:52:20;10.50;99.90
3275;DHT22;1649;53.672;10.064;2022-09-20T06:54:51;10.50;99.90
3275;DHT22;1649;53.672;10.064;2022-09-20T06:57:32;10.50;99.90
3275;DHT22;1649;53.672;10.064;2022-09-20T06:59:58;10.40;99.90
3275;DHT22;1649;53.672;10.064;2022-09-20T07:02:23;10.40;99.90
3275;DHT22;1649;53.672;10.064;2022-09-20T07:04:49;10.40;99.90
3275;DHT22;1649;53.672;10.064;2022-09-20T07:07:18;10.40;99.90
3275;DHT22;1649;53.672;10.064;2022-09-20T07:09:44;10.50;99.90
3275;DHT22;1649;53.672;10.064;2022-09-20T07:12:09;10.40;99.90
3275;DHT22;1649;53.672;10.064;2022-09-20T07:14:36;10.40;99.90
3275;DHT22;1649;53.672;10.064;2022-09-20T07:17:01;10.40;99.90
3275;DHT22;1649;53.672;10.064;2022-09-20T07:19:27;10.50;99.90
3275;DHT22;1649;53.672;10.064;2022-09-20T07:21:53;10.50;99.90
3275;DHT22;1649;53.672;10.064;2022-09-20T07:24:18;10.50;99.90
3275;DHT22;1649;53.672;10.064;2022-09-20T07:27:03;10.60;99.90
3275;DHT22;1649;53.672;10.064;2022-09-20T07:29:29;10.60;99.90
3275;DHT22;1649;53.672;10.064;2022-09-20T07:31:56;10.70;99.90
3275;DHT22;1649;53.672;10.064;2022-09-20T07:34:21;10.90;99.90
3275;DHT22;1649;53.672;10.064;2022-09-20T07:36:48;11.40;99.90
3275;DHT22;1649;53.672;10.064;2022-09-20T07:39:14;11.70;99.90
3275;DHT22;1649;53.672;10.064;2022-09-20T07:41:40;11.90;99.90
3275;DHT22;1649;53.672;10.064;2022-09-20T07:44:05;12.20;99.90
3275;DHT22;1649;53.672;10.064;2022-09-20T07:46:53;12.70;99.90
3275;DHT22;1649;53.672;10.064;2022-09-20T07:49:19;12.90;99.90
3275;DHT22;1649;53.672;10.064;2022-09-20T07:51:45;12.90;99.90
3275;DHT22;1649;53.672;10.064;2022-09-20T07:54:11;12.90;99.90
3275;DHT22;1649;53.672;10.064;2022-09-20T07:56:36;13.00;99.90
3275;DHT22;1649;53.672;10.064;2022-09-20T07:59:02;12.80;99.90
3275;DHT22;1649;53.672;10.064;2022-09-20T08:01:28;12.60;99.90
3275;DHT22;1649;53.672;10.064;2022-09-20T08:03:53;12.50;99.90
3275;DHT22;1649;53.672;10.064;2022-09-20T08:06:19;12.50;99.90
3275;DHT22;1649;53.672;10.064;2022-09-20T08:08:45;12.40;99.90
3275;DHT22;1649;53.672;10.064;2022-09-20T08:11:14;12.40;99.90
3275;DHT22;1649;53.672;10.064;2022-09-20T08:13:48;12.20;99.90
3275;DHT22;1649;53.672;10.064;2022-09-20T08:16:14;12.10;99.90
3275;DHT22;1649;53.672;10.064;2022-09-20T08:18:47;12.10;99.90
3275;DHT22;1649;53.672;10.064;2022-09-20T08:21:14;12.20;99.90
3275;DHT22;1649;53.672;10.064;2022-09-20T08:23:41;12.60;99.90
3275;DHT22;1649;53.672;10.064;2022-09-20T08:26:10;13.50;99.90
3275;DHT22;1649;53.672;10.064;2022-09-20T08:28:40;14.70;99.90
3275;DHT22;1649;53.672;10.064;2022-09-20T08:31:08;15.50;99.90
3275;DHT22;1649;53.672;10.064;2022-09-20T08:33:35;16.40;99.90
3275;DHT22;1649;53.672;10.064;2022-09-20T08:36:03;17.20;99.90
3275;DHT22;1649;53.672;10.064;2022-09-20T08:38:29;17.90;99.90
3275;DHT22;1649;53.672;10.064;2022-09-20T08:41:18;18.70;99.90
3275;DHT22;1649;53.672;10.064;2022-09-20T08:43:54;19.30;99.90
3275;DHT22;1649;53.672;10.064;2022-09-20T08:46:26;19.70;99.90
3275;DHT22;1649;53.672;10.064;2022-09-20T08:48:54;20.00;99.90
3275;DHT22;1649;53.672;10.064;2022-09-20T08:51:20;20.10;99.90
3275;DHT22;1649;53.672;10.064;2022-09-20T08:53:48;20.60;99.90
3275;DHT22;1649;53.672;10.064;2022-09-20T08:56:16;21.00;99.90
3275;DHT22;1649;53.672;10.064;2022-09-20T08:58:42;21.20;99.90
3275;DHT22;1649;53.672;10.064;2022-09-20T09:01:13;21.10;99.90
3275;DHT22;1649;53.672;10.064;2022-09-20T09:03:42;21.20;99.90
3275;DHT22;1649;53.672;10.064;2022-09-20T09:06:18;21.20;99.90
3275;DHT22;1649;53.672;10.064;2022-09-20T09:08:44;21.30;99.90
3275;DHT22;1649;53.672;10.064;2022-09-20T09:11:15;21.40;99.90
3275;DHT22;1649;53.672;10.064;2022-09-20T09:14:00;21.50;99.90
3275;DHT22;1649;53.672;10.064;2022-09-20T09:16:29;21.40;99.90
3275;DHT22;1649;53.672;10.064;2022-09-20T09:18:55;21.40;99.90
3275;DHT22;1649;53.672;10.064;2022-09-20T09:21:27;20.70;99.90
3275;DHT22;1649;53.672;10.064;2022-09-20T09:24:11;20.00;99.90
3275;DHT22;1649;53.672;10.064;2022-09-20T09:26:40;20.20;99.90
3275;DHT22;1649;53.672;10.064;2022-09-20T09:29:21;19.50;99.90
3275;DHT22;1649;53.672;10.064;2022-09-20T09:31:49;19.60;99.90
3275;DHT22;1649;53.672;10.064;2022-09-20T09:34:22;19.80;99.90
3275;DHT22;1649;53.672;10.064;2022-09-20T09:36:49;19.90;99.90
3275;DHT22;1649;53.672;10.064;2022-09-20T09:39:27;19.70;99.90
3275;DHT22;1649;53.672;10.064;2022-09-20T09:41:53;19.00;99.90
3275;DHT22;1649;53.672;10.064;2022-09-20T09:44:23;18.50;99.90
3275;DHT22;1649;53.672;10.064;2022-09-20T09:46:50;17.90;99.90
3275;DHT22;1649;53.672;10.064;2022-09-20T09:49:18;17.30;99.90
3275;DHT22;1649;53.672;10.064;2022-09-20T09:54:36;17.60;99.90
3275;DHT22;1649;53.672;10.064;2022-09-20T09:57:12;18.00;99.90
3275;DHT22;1649;53.672;10.064;2022-09-20T10:05:10;19.30;99.90
3275;DHT22;1649;53.672;10.064;2022-09-20T10:07:45;19.60;99.90
3275;DHT22;1649;53.672;10.064;2022-09-20T10:13:37;20.10;99.50
3275;DHT22;1649;53.672;10.064;2022-09-20T10:16:28;20.30;99.90
3275;DHT22;1649;53.672;10.064;2022-09-20T10:32:40;21.00;94.60
3275;DHT22;1649;53.672;10.064;2022-09-20T10:35:45;20.10;95.50
3275;DHT22;1649;53.672;10.064;2022-09-20T10:38:14;19.00;99.90
3275;DHT22;1649;53.672;10.064;2022-09-20T10:49:20;18.60;99.90
3275;DHT22;1649;53.672;10.064;2022-09-20T11:02:43;19.40;98.40
3275;DHT22;1649;53.672;10.064;2022-09-20T11:05:55;19.30;95.60
3275;DHT22;1649;53.672;10.064;2022-09-20T11:08:22;19.40;97.20
3275;DHT22;1649;53.672;10.064;2022-09-20T11:10:57;19.70;97.60
3275;DHT22;1649;53.672;10.064;2022-09-20T11:13:41;19.70;95.70
3275;DHT22;1649;53.672;10.064;2022-09-20T11:16:24;19.20;96.60
3275;DHT22;1649;53.672;10.064;2022-09-20T11:21:31;18.30;98.10
3275;DHT22;1649;53.672;10.064;2022-09-20T11:24:14;18.40;97.70
3275;DHT22;1649;53.672;10.064;2022-09-20T11:26:45;18.60;98.60
3275;DHT22;1649;53.672;10.064;2022-09-20T11:29:24;18.50;96.80
3275;DHT22;1649;53.672;10.064;2022-09-20T11:31:53;18.20;96.20
3275;DHT22;1649;53.672;10.064;2022-09-20T11:34:21;17.90;98.40
3275;DHT22;1649;53.672;10.064;2022-09-20T11:36:52;17.40;97.30
3275;DHT22;1649;53.672;10.064;2022-09-20T11:42:05;17.60;98.10
3275;DHT22;1649;53.672;10.064;2022-09-20T11:44:32;17.80;97.60
3275;DHT22;1649;53.672;10.064;2022-09-20T11:47:13;18.20;97.20
3275;DHT22;1649;53.672;10.064;2022-09-20T11:52:45;18.80;97.30
3275;DHT22;1649;53.672;10.064;2022-09-20T11:58:05;19.40;98.00
3275;DHT22;1649;53.672;10.064;2022-09-20T12:00:35;19.50;93.90
3275;DHT22;1649;53.672;10.064;2022-09-20T12:03:04;19.50;93.90
3275;DHT22;1649;53.672;10.064;2022-09-20T12:05:32;19.40;93.30
3275;DHT22;1649;53.672;10.064;2022-09-20T12:08:00;19.40;94.40
3275;DHT22;1649;53.672;10.064;2022-09-20T12:10:33;19.50;92.00
3275;DHT22;1649;53.672;10.064;2022-09-20T12:13:06;19.40;91.20
3275;DHT22;1649;53.672;10.064;2022-09-20T12:15:37;19.40;93.50
3275;DHT22;1649;53.672;10.064;2022-09-20T12:18:20;19.50;92.90
3275;DHT22;1649;53.672;10.064;2022-09-20T12:20:56;19.50;93.20
3275;DHT22;1649;53.672;10.064;2022-09-20T12:28:43;19.20;93.20
3275;DHT22;1649;53.672;10.064;2022-09-20T12:36:41;18.80;93.90
3275;DHT22;1649;53.672;10.064;2022-09-20T12:41:56;18.30;91.90
3275;DHT22;1649;53.672;10.064;2022-09-20T12:44:23;18.30;95.00
3275;DHT22;1649;53.672;10.064;2022-09-20T12:47:02;18.20;93.30
3275;DHT22;1649;53.672;10.064;2022-09-20T12:52:31;18.20;94.40
3275;DHT22;1649;53.672;10.064;2022-09-20T12:57:54;18.60;94.80
3275;DHT22;1649;53.672;10.064;2022-09-20T13:03:34;18.80;93.20
3275;DHT22;1649;53.672;10.064;2022-09-20T13:11:19;19.20;93.00
3275;DHT22;1649;53.672;10.064;2022-09-20T13:19:06;18.70;91.80
3275;DHT22;1649;53.672;10.064;2022-09-20T13:21:39;18.40;92.30
3275;DHT22;1649;53.672;10.064;2022-09-20T13:24:05;18.20;92.90
3275;DHT22;1649;53.672;10.064;2022-09-20T13:26:38;17.90;94.50
3275;DHT22;1649;53.672;10.064;2022-09-20T13:29:07;17.60;95.00
3275;DHT22;1649;53.672;10.064;2022-09-20T13:31:34;17.40;95.30
3275;DHT22;1649;53.672;10.064;2022-09-20T13:34:17;17.30;96.70
3275;DHT22;1649;53.672;10.064;2022-09-20T13:36:43;17.30;95.20
3275;DHT22;1649;53.672;10.064;2022-09-20T13:39:22;17.60;95.70
3275;DHT22;1649;53.672;10.064;2022-09-20T13:41:48;18.00;94.20
3275;DHT22;1649;53.672;10.064;2022-09-20T13:44:15;18.30;92.70
3275;DHT22;1649;53.672;10.064;2022-09-20T13:46:43;18.60;91.90
3275;DHT22;1649;53.672;10.064;2022-09-20T13:49:14;18.50;92.00
3275;DHT22;1649;53.672;10.064;2022-09-20T13:51:42;18.50;92.80
3275;DHT22;1649;53.672;10.064;2022-09-20T13:56:50;18.00;92.20
3275;DHT22;1649;53.672;10.064;2022-09-20T13:59:16;17.50;93.20
3275;DHT22;1649;53.672;10.064;2022-09-20T14:01:50;17.10;93.90
3275;DHT22;1649;53.672;10.064;2022-09-20T14:04:22;17.00;94.30
3275;DHT22;1649;53.672;10.064;2022-09-20T14:06:51;16.80;94.10
3275;DHT22;1649;53.672;10.064;2022-09-20T14:09:37;16.70;95.90
3275;DHT22;1649;53.672;10.064;2022-09-20T14:12:04;16.60;92.90
3275;DHT22;1649;53.672;10.064;2022-09-20T14:14:31;16.70;94.10
3275;DHT22;1649;53.672;10.064;2022-09-20T14:16:59;16.90;95.50
3275;DHT22;1649;53.672;10.064;2022-09-20T14:19:30;17.00;94.50
3275;DHT22;1649;53.672;10.064;2022-09-20T14:21:58;17.00;93.10
3275;DHT22;1649;53.672;10.064;2022-09-20T14:24:32;16.90;92.30
3275;DHT22;1649;53.672;10.064;2022-09-20T14:27:20;16.70;94.00
3275;DHT22;1649;53.672;10.064;2022-09-20T14:29:48;16.70;94.70
3275;DHT22;1649;53.672;10.064;2022-09-20T14:37:24;17.00;94.70
3275;DHT22;1649;53.672;10.064;2022-09-20T14:39:56;17.20;98.00
3275;DHT22;1649;53.672;10.064;2022-09-20T14:42:44;17.30;93.90
3275;DHT22;1649;53.672;10.064;2022-09-20T14:48:03;17.50;94.90
3275;DHT22;1649;53.672;10.064;2022-09-20T14:50:33;17.60;96.40
3275;DHT22;1649;53.672;10.064;2022-09-20T14:55:36;17.30;97.50
3275;DHT22;1649;53.672;10.064;2022-09-20T14:58:09;17.30;94.90
3275;DHT22;1649;53.672;10.064;2022-09-20T15:03:41;17.00;96.80
3275;DHT22;1649;53.672;10.064;2022-09-20T15:06:10;17.00;94.90
3275;DHT22;1649;53.672;10.064;2022-09-20T15:08:37;17.00;95.80
3275;DHT22;1649;53.672;10.064;2022-09-20T15:11:03;17.20;97.00
3275;DHT22;1649;53.672;10.064;2022-09-20T15:13:28;17.20;96.90
3275;DHT22;1649;53.672;10.064;2022-09-20T15:15:54;17.30;95.70
3275;DHT22;1649;53.672;10.064;2022-09-20T15:18:39;17.30;94.60
3275;DHT22;1649;53.672;10.064;2022-09-20T15:21:05;17.40;93.30
3275;DHT22;1649;53.672;10.064;2022-09-20T15:23:31;17.40;92.60
3275;DHT22;1649;53.672;10.064;2022-09-20T15:25:57;17.30;95.30
3275;DHT22;1649;53.672;10.064;2022-09-20T15:28:24;17.20;93.40
3275;DHT22;1649;53.672;10.064;2022-09-20T15:30:51;17.20;93.30
3275;DHT22;1649;53.672;10.064;2022-09-20T15:33:17;17.10;92.80
3275;DHT22;1649;53.672;10.064;2022-09-20T15:35:44;17.10;92.70
3275;DHT22;1649;53.672;10.064;2022-09-20T15:38:10;17.00;92.90
3275;DHT22;1649;53.672;10.064;2022-09-20T15:40:40;17.00;93.20
3275;DHT22;1649;53.672;10.064;2022-09-20T15:43:07;17.00;92.70
3275;DHT22;1649;53.672;10.064;2022-09-20T15:45:55;17.00;92.60
3275;DHT22;1649;53.672;10.064;2022-09-20T15:48:25;17.00;92.70
3275;DHT22;1649;53.672;10.064;2022-09-20T15:50:57;17.00;94.20
3275;DHT22;1649;53.672;10.064;2022-09-20T15:53:27;17.00;92.70
3275;DHT22;1649;53.672;10.064;2022-09-20T15:55:52;16.90;95.60
3275;DHT22;1649;53.672;10.064;2022-09-20T15:58:18;16.80;95.10
3275;DHT22;1649;53.672;10.064;2022-09-20T16:00:43;16.80;96.30
3275;DHT22;1649;53.672;10.064;2022-09-20T16:03:10;16.70;95.70
3275;DHT22;1649;53.672;10.064;2022-09-20T16:05:35;16.60;96.80
3275;DHT22;1649;53.672;10.064;2022-09-20T16:08:01;16.60;96.70
3275;DHT22;1649;53.672;10.064;2022-09-20T16:10:26;16.60;98.40
3275;DHT22;1649;53.672;10.064;2022-09-20T16:12:52;16.50;99.40
3275;DHT22;1649;53.672;10.064;2022-09-20T16:15:17;16.30;97.20
3275;DHT22;1649;53.672;10.064;2022-09-20T16:17:43;16.30;97.10
3275;DHT22;1649;53.672;10.064;2022-09-20T16:20:26;16.30;96.90
3275;DHT22;1649;53.672;10.064;2022-09-20T16:22:52;16.30;98.00
3275;DHT22;1649;53.672;10.064;2022-09-20T16:25:17;16.20;97.00
3275;DHT22;1649;53.672;10.064;2022-09-20T16:27:43;16.20;97.60
3275;DHT22;1649;53.672;10.064;2022-09-20T16:30:09;16.10;98.90
3275;DHT22;1649;53.672;10.064;2022-09-20T16:32:34;16.10;99.80
3275;DHT22;1649;53.672;10.064;2022-09-20T16:35:00;16.00;98.90
3275;DHT22;1649;53.672;10.064;2022-09-20T16:37:28;16.00;99.70
3275;DHT22;1649;53.672;10.064;2022-09-20T16:39:57;15.90;99.90
3275;DHT22;1649;53.672;10.064;2022-09-20T16:42:22;15.90;99.90
3275;DHT22;1649;53.672;10.064;2022-09-20T16:44:48;15.70;99.90
3275;DHT22;1649;53.672;10.064;2022-09-20T16:47:14;15.70;99.90
3275;DHT22;1649;53.672;10.064;2022-09-20T16:49:46;15.60;99.90
3275;DHT22;1649;53.672;10.064;2022-09-20T16:52:12;15.50;99.90
3275;DHT22;1649;53.672;10.064;2022-09-20T16:54:38;15.40;99.90
3275;DHT22;1649;53.672;10.064;2022-09-20T16:57:04;15.20;99.90
3275;DHT22;1649;53.672;10.064;2022-09-20T16:59:30;15.20;99.90
3275;DHT22;1649;53.672;10.064;2022-09-20T17:01:56;15.10;99.90
3275;DHT22;1649;53.672;10.064;2022-09-20T17:04:21;15.00;99.90
3275;DHT22;1649;53.672;10.064;2022-09-20T17:06:48;14.90;99.90
3275;DHT22;1649;53.672;10.064;2022-09-20T17:09:14;14.80;99.90
3275;DHT22;1649;53.672;10.064;2022-09-20T17:11:42;14.60;99.90
3275;DHT22;1649;53.672;10.064;2022-09-20T17:14:12;14.50;99.90
3275;DHT22;1649;53.672;10.064;2022-09-20T17:16:39;14.40;99.90
3275;DHT22;1649;53.672;10.064;2022-09-20T17:19:07;14.20;99.90
3275;DHT22;1649;53.672;10.064;2022-09-20T17:21:35;14.20;99.90
3275;DHT22;1649;53.672;10.064;2022-09-20T17:24:03;14.10;99.90
3275;DHT22;1649;53.672;10.064;2022-09-20T17:26:30;14.00;99.90
3275;DHT22;1649;53.672;10.064;2022-09-20T17:28:58;13.90;99.90
3275;DHT22;1649;53.672;10.064;2022-09-20T17:31:26;13.80;99.90
3275;DHT22;1649;53.672;10.064;2022-09-20T17:33:56;13.70;99.90
3275;DHT22;1649;53.672;10.064;2022-09-20T17:36:26;13.60;99.90
3275;DHT22;1649;53.672;10.064;2022-09-20T17:38:53;13.50;99.90
3275;DHT22;1649;53.672;10.064;2022-09-20T17:41:20;13.40;99.90
3275;DHT22;1649;53.672;10.064;2022-09-20T17:43:47;13.40;99.90
3275;DHT22;1649;53.672;10.064;2022-09-20T17:46:18;13.30;99.90
3275;DHT22;1649;53.672;10.064;2022-09-20T17:49:01;13.20;99.90
3275;DHT22;1649;53.672;10.064;2022-09-20T17:51:29;13.10;99.90
3275;DHT22;1649;53.672;10.064;2022-09-20T17:53:55;13.10;99.90
3275;DHT22;1649;53.672;10.064;2022-09-20T17:56:21;13.00;99.90
3275;DHT22;1649;53.672;10.064;2022-09-20T17:58:49;12.90;99.90
3275;DHT22;1649;53.672;10.064;2022-09-20T18:01:16;12.80;99.90
3275;DHT22;1649;53.672;10.064;2022-09-20T18:03:44;12.80;99.90
3275;DHT22;1649;53.672;10.064;2022-09-20T18:06:22;12.70;99.90
3275;DHT22;1649;53.672;10.064;2022-09-20T18:08:50;12.70;99.90
3275;DHT22;1649;53.672;10.064;2022-09-20T18:11:19;12.60;99.90
3275;DHT22;1649;53.672;10.064;2022-09-20T18:13:46;12.60;99.90
3275;DHT22;1649;53.672;10.064;2022-09-20T18:16:13;12.50;99.90
3275;DHT22;1649;53.672;10.064;2022-09-20T18:18:39;12.50;99.90
3275;DHT22;1649;53.672;10.064;2022-09-20T18:21:16;12.40;99.90
3275;DHT22;1649;53.672;10.064;2022-09-20T18:23:43;12.40;99.90
3275;DHT22;1649;53.672;10.064;2022-09-20T18:26:11;12.40;99.90
3275;DHT22;1649;53.672;10.064;2022-09-20T18:28:46;12.30;99.90
3275;DHT22;1649;53.672;10.064;2022-09-20T18:31:12;12.20;99.90
3275;DHT22;1649;53.672;10.064;2022-09-20T18:33:37;12.20;99.90
3275;DHT22;1649;53.672;10.064;2022-09-20T18:36:04;12.20;99.90
3275;DHT22;1649;53.672;10.064;2022-09-20T18:38:30;12.10;99.90
3275;DHT22;1649;53.672;10.064;2022-09-20T18:40:58;12.10;99.90
3275;DHT22;1649;53.672;10.064;2022-09-20T18:43:30;12.00;99.90
3275;DHT22;1649;53.672;10.064;2022-09-20T18:45:56;11.90;99.90
3275;DHT22;1649;53.672;10.064;2022-09-20T18:48:23;11.90;99.90
3275;DHT22;1649;53.672;10.064;2022-09-20T18:50:59;11.80;99.90
3275;DHT22;1649;53.672;10.064;2022-09-20T18:53:30;11.80;99.90
3275;DHT22;1649;53.672;10.064;2022-09-20T18:56:08;11.80;99.90
3275;DHT22;1649;53.672;10.064;2022-09-20T18:58:35;11.80;99.90
3275;DHT22;1649;53.672;10.064;2022-09-20T19:04:41;11.70;99.90
3275;DHT22;1649;53.672;10.064;2022-09-20T19:10:34;11.60;99.90
3275;DHT22;1649;53.672;10.064;2022-09-20T19:13:22;11.60;99.90
3275;DHT22;1649;53.672;10.064;2022-09-20T19:16:28;11.60;99.90
3275;DHT22;1649;53.672;10.064;2022-09-20T19:24:42;11.30;99.90
3275;DHT22;1649;53.672;10.064;2022-09-20T19:27:11;11.30;99.90
3275;DHT22;1649;53.672;10.064;2022-09-20T19:29:38;11.30;99.90
3275;DHT22;1649;53.672;10.064;2022-09-20T19:32:04;11.30;99.90
3275;DHT22;1649;53.672;10.064;2022-09-20T19:34:31;11.20;99.90
3275;DHT22;1649;53.672;10.064;2022-09-20T19:42:32;11.00;99.90
3275;DHT22;1649;53.672;10.064;2022-09-20T19:48:03;11.00;99.90
3275;DHT22;1649;53.672;10.064;2022-09-20T19:50:43;11.00;99.90
3275;DHT22;1649;53.672;10.064;2022-09-20T19:53:16;11.00;99.90
3275;DHT22;1649;53.672;10.064;2022-09-20T19:55:46;10.90;99.90
3275;DHT22;1649;53.672;10.064;2022-09-20T19:58:13;10.90;99.90
3275;DHT22;1649;53.672;10.064;2022-09-20T20:00:39;10.80;99.90
3275;DHT22;1649;53.672;10.064;2022-09-20T20:03:09;10.90;99.90
3275;DHT22;1649;53.672;10.064;2022-09-20T20:05:36;10.80;99.90
3275;DHT22;1649;53.672;10.064;2022-09-20T20:08:10;10.80;99.90
3275;DHT22;1649;53.672;10.064;2022-09-20T20:10:50;10.80;99.90
3275;DHT22;1649;53.672;10.064;2022-09-20T20:16:13;10.70;99.90
3275;DHT22;1649;53.672;10.064;2022-09-20T20:21:29;10.70;99.90
3275;DHT22;1649;53.672;10.064;2022-09-20T20:24:09;10.60;99.90
3275;DHT22;1649;53.672;10.064;2022-09-20T20:26:42;10.60;99.90
3275;DHT22;1649;53.672;10.064;2022-09-20T20:29:09;10.60;99.90
3275;DHT22;1649;53.672;10.064;2022-09-20T20:31:34;10.60;99.90
3275;DHT22;1649;53.672;10.064;2022-09-20T20:34:00;10.60;99.90
3275;DHT22;1649;53.672;10.064;2022-09-20T20:36:25;10.50;99.90
3275;DHT22;1649;53.672;10.064;2022-09-20T20:38:51;10.50;99.90
3275;DHT22;1649;53.672;10.064;2022-09-20T20:41:18;10.50;99.90
3275;DHT22;1649;53.672;10.064;2022-09-20T20:43:46;10.50;99.90
3275;DHT22;1649;53.672;10.064;2022-09-20T20:46:15;10.40;99.90
3275;DHT22;1649;53.672;10.064;2022-09-20T20:48:43;10.50;99.90
3275;DHT22;1649;53.672;10.064;2022-09-20T20:51:10;10.40;99.90
3275;DHT22;1649;53.672;10.064;2022-09-20T20:53:39;10.40;99.90
3275;DHT22;1649;53.672;10.064;2022-09-20T20:56:09;10.30;99.90
3275;DHT22;1649;53.672;10.064;2022-09-20T20:58:38;10.30;99.90
3275;DHT22;1649;53.672;10.064;2022-09-20T21:01:26;10.30;99.90
3275;DHT22;1649;53.672;10.064;2022-09-20T21:03:53;10.30;99.90
3275;DHT22;1649;53.672;10.064;2022-09-20T21:06:20;10.30;99.90
3275;DHT22;1649;53.672;10.064;2022-09-20T21:08:47;10.20;99.90
3275;DHT22;1649;53.672;10.064;2022-09-20T21:11:15;10.20;99.90
3275;DHT22;1649;53.672;10.064;2022-09-20T21:13:41;10.20;99.90
3275;DHT22;1649;53.672;10.064;2022-09-20T21:18:35;10.10;99.90